createdAt,value
2022-10-08T00:01:07.548Z,15.65
2022-10-08T00:03:36.551Z,13.85
2022-10-08T00:06:03.973Z,12.65
2022-10-08T00:08:32.552Z,12.63
2022-10-08T00:11:01.221Z,13.48
2022-10-08T00:13:40.699Z,11.07
2022-10-08T00:16:14.018Z,11.75
2022-10-08T00:18:42.531Z,18.70
2022-10-08T00:21:14.444Z,13.30
2022-10-08T00:23:42.505Z,19.08
2022-10-08T00:26:10.686Z,12.73
2022-10-08T00:28:39.498Z,12.93
2022-10-08T00:31:08.343Z,10.43
2022-10-08T00:33:38.957Z,11.55
2022-10-08T00:36:07.801Z,12.73
2022-10-08T00:38:35.703Z,12.60
2022-10-08T00:41:05.575Z,12.75
2022-10-08T00:43:40.773Z,19.73
2022-10-08T00:48:36.039Z,25.20
2022-10-08T00:51:03.537Z,23.33
2022-10-08T00:53:30.956Z,19.73
2022-10-08T00:55:58.451Z,18.25
2022-10-08T00:58:26.984Z,15.02
2022-10-08T01:00:54.752Z,16.90
2022-10-08T01:03:22.284Z,27.20
2022-10-08T01:06:04.837Z,18.77
2022-10-08T01:08:43.496Z,19.48
2022-10-08T01:11:20.073Z,18.15
2022-10-08T01:13:53.714Z,24.45
2022-10-08T01:16:31.161Z,16.80
2022-10-08T01:19:06.930Z,19.35
2022-10-08T01:21:50.687Z,22.85
2022-10-08T01:24:44.802Z,21.92
2022-10-08T01:27:19.093Z,18.95
2022-10-08T01:29:48.781Z,19.77
2022-10-08T01:32:20.592Z,18.05
2022-10-08T01:34:53.855Z,21.23
2022-10-08T01:37:24.315Z,18.60
2022-10-08T01:39:52.676Z,14.55
2022-10-08T01:42:23.398Z,15.10
2022-10-08T01:44:52.936Z,18.00
2022-10-08T01:47:24.015Z,15.18
2022-10-08T01:49:53.984Z,13.90
2022-10-08T01:52:25.345Z,13.07
2022-10-08T01:54:55.060Z,17.58
2022-10-08T01:57:24.250Z,21.85
2022-10-08T02:00:11.613Z,20.45
2022-10-08T02:02:42.958Z,15.60
2022-10-08T02:05:11.746Z,15.27
2022-10-08T02:07:42.341Z,17.80
2022-10-08T02:10:09.881Z,33.58
2022-10-08T02:12:38.053Z,24.17
2022-10-08T02:15:06.608Z,20.10
2022-10-08T02:17:43.742Z,22.15
2022-10-08T02:20:30.213Z,17.27
2022-10-08T02:23:04.600Z,18.75
2022-10-08T02:25:55.312Z,20.60
2022-10-08T02:28:29.742Z,18.67
2022-10-08T02:31:00.966Z,27.02
2022-10-08T02:33:34.329Z,25.00
2022-10-08T02:36:03.059Z,17.30
2022-10-08T02:38:38.929Z,19.90
2022-10-08T02:41:08.401Z,24.90
2022-10-08T02:43:38.272Z,20.00
2022-10-08T02:46:17.284Z,28.92
2022-10-08T02:48:58.736Z,29.63
2022-10-08T02:51:28.032Z,26.50
2022-10-08T02:53:55.470Z,36.97
2022-10-08T02:56:25.567Z,20.40
2022-10-08T02:58:53.471Z,22.77
2022-10-08T03:01:26.829Z,24.48
2022-10-08T03:03:58.795Z,22.90
2022-10-08T03:06:28.101Z,23.52
2022-10-08T03:08:59.595Z,22.10
2022-10-08T03:11:29.036Z,20.10
2022-10-08T03:13:58.453Z,21.92
2022-10-08T03:16:28.874Z,18.52
2022-10-08T03:18:59.190Z,19.38
2022-10-08T03:21:28.253Z,19.45
2022-10-08T03:23:55.665Z,18.80
2022-10-08T03:26:23.123Z,18.70
2022-10-08T03:28:52.818Z,22.20
2022-10-08T03:31:20.447Z,22.50
2022-10-08T03:33:51.337Z,19.25
2022-10-08T03:36:18.881Z,24.15
2022-10-08T03:38:46.293Z,19.77
2022-10-08T03:41:13.928Z,21.75
2022-10-08T03:43:41.324Z,20.20
2022-10-08T03:46:09.384Z,27.30
2022-10-08T03:48:37.020Z,20.63
2022-10-08T03:51:05.933Z,41.35
2022-10-08T03:53:34.094Z,21.30
2022-10-08T03:56:02.455Z,41.08
2022-10-08T03:58:30.169Z,32.00
2022-10-08T04:01:02.498Z,34.40
2022-10-08T04:03:30.759Z,43.17
2022-10-08T04:05:58.660Z,25.98
2022-10-08T04:08:26.433Z,29.70
2022-10-08T04:10:54.130Z,27.23
2022-10-08T04:13:21.928Z,24.27
2022-10-08T04:15:50.952Z,27.60
2022-10-08T04:18:18.717Z,27.45
2022-10-08T04:20:46.185Z,22.40
2022-10-08T04:23:13.704Z,20.98
2022-10-08T04:25:49.467Z,20.38
2022-10-08T04:28:17.277Z,28.38
2022-10-08T04:30:44.721Z,23.98
2022-10-08T04:33:12.279Z,18.83
2022-10-08T04:35:39.728Z,24.35
2022-10-08T04:38:07.178Z,24.08
2022-10-08T04:40:34.643Z,19.30
2022-10-08T04:43:02.139Z,27.17
2022-10-08T04:45:29.591Z,19.13
2022-10-08T04:47:57.066Z,21.35
2022-10-08T04:50:24.512Z,24.08
2022-10-08T04:52:51.968Z,21.27
2022-10-08T04:55:19.444Z,23.98
2022-10-08T04:57:46.815Z,47.90
2022-10-08T05:00:18.458Z,30.15
2022-10-08T05:02:46.907Z,33.53
2022-10-08T05:05:15.623Z,26.95
2022-10-08T05:07:43.400Z,36.75
2022-10-08T05:10:10.826Z,36.38
2022-10-08T05:12:38.329Z,36.92
2022-10-08T05:15:07.745Z,31.48
2022-10-08T05:17:35.408Z,26.05
2022-10-08T05:20:02.791Z,25.90
2022-10-08T05:22:30.389Z,28.92
2022-10-08T05:24:57.795Z,34.78
2022-10-08T05:27:25.296Z,30.80
2022-10-08T05:29:52.697Z,24.92
2022-10-08T05:32:20.211Z,23.50
2022-10-08T05:34:47.795Z,20.75
2022-10-08T05:37:15.189Z,20.95
2022-10-08T05:39:42.663Z,34.83
2022-10-08T05:42:10.055Z,61.03
2022-10-08T05:44:37.957Z,59.45
2022-10-08T05:47:05.510Z,43.90
2022-10-08T05:49:33.215Z,43.20
2022-10-08T05:52:00.656Z,33.80
2022-10-08T05:54:28.200Z,24.42
2022-10-08T05:56:55.818Z,26.40
2022-10-08T05:59:24.130Z,29.00
2022-10-08T06:01:51.940Z,82.20
2022-10-08T06:04:19.558Z,22.85
2022-10-08T06:06:47.079Z,20.20
2022-10-08T06:09:15.829Z,25.10
2022-10-08T06:11:43.342Z,23.77
2022-10-08T06:14:12.084Z,17.00
2022-10-08T06:16:40.708Z,19.50
2022-10-08T06:19:08.753Z,15.38
2022-10-08T06:21:36.791Z,18.42
2022-10-08T06:24:06.762Z,20.25
2022-10-08T06:26:36.592Z,13.48
2022-10-08T06:29:05.894Z,15.63
2022-10-08T06:31:34.379Z,16.15
2022-10-08T06:34:04.325Z,14.73
2022-10-08T06:36:32.907Z,21.83
2022-10-08T06:39:01.307Z,17.30
2022-10-08T06:41:35.490Z,12.93
2022-10-08T06:44:07.869Z,15.95
2022-10-08T06:46:35.491Z,17.35
2022-10-08T06:49:03.176Z,16.30
2022-10-08T06:51:31.013Z,13.55
2022-10-08T06:54:06.616Z,16.08
2022-10-08T06:56:36.141Z,15.77
2022-10-08T06:59:04.362Z,15.43
2022-10-08T07:01:33.858Z,10.73
2022-10-08T07:04:02.979Z,11.52
2022-10-08T07:06:31.004Z,12.95
2022-10-08T07:08:59.721Z,14.05
2022-10-08T07:11:27.483Z,14.32
2022-10-08T07:13:55.542Z,13.45
2022-10-08T07:16:23.926Z,16.30
2022-10-08T07:18:52.505Z,16.15
2022-10-08T07:21:21.570Z,18.75
2022-10-08T07:23:49.186Z,14.55
2022-10-08T07:26:18.310Z,13.10
2022-10-08T07:28:49.869Z,14.40
2022-10-08T07:31:19.117Z,18.90
2022-10-08T07:33:46.656Z,16.48
2022-10-08T07:36:18.729Z,14.88
2022-10-08T07:38:46.512Z,12.40
2022-10-08T07:41:14.288Z,16.60
2022-10-08T07:43:41.769Z,17.83
2022-10-08T07:46:10.380Z,14.82
2022-10-08T07:48:38.231Z,45.65
2022-10-08T07:51:12.770Z,16.63
2022-10-08T07:53:40.951Z,14.32
2022-10-08T07:56:09.035Z,11.07
2022-10-08T07:58:36.788Z,14.32
2022-10-08T08:01:05.686Z,14.10
2022-10-08T08:03:33.182Z,41.05
2022-10-08T08:06:03.751Z,19.00
2022-10-08T08:08:31.330Z,10.77
2022-10-08T08:11:02.069Z,12.80
2022-10-08T08:13:34.467Z,11.63
2022-10-08T08:18:32.743Z,23.35
2022-10-08T08:21:00.571Z,19.40
2022-10-08T08:23:35.036Z,17.77
2022-10-08T08:26:03.192Z,15.23
2022-10-08T08:28:30.848Z,14.02
2022-10-08T08:31:10.596Z,26.83
2022-10-08T08:33:38.116Z,20.27
2022-10-08T08:36:05.855Z,14.02
2022-10-08T08:38:36.938Z,10.65
2022-10-08T08:41:23.232Z,13.65
2022-10-08T08:43:57.817Z,21.33
2022-10-08T08:46:26.258Z,19.05
2022-10-08T08:48:54.401Z,15.43
2022-10-08T08:51:21.842Z,15.77
2022-10-08T08:53:49.263Z,12.13
2022-10-08T08:56:18.399Z,14.00
2022-10-08T08:59:03.664Z,14.02
2022-10-08T09:01:35.438Z,11.88
2022-10-08T09:04:06.365Z,13.27
2022-10-08T09:06:35.278Z,16.20
2022-10-08T09:09:06.314Z,12.13
2022-10-08T09:11:33.863Z,13.10
2022-10-08T09:14:06.599Z,21.77
2022-10-08T09:16:34.861Z,31.23
2022-10-08T09:19:02.335Z,82.68
2022-10-08T09:21:33.863Z,29.55
2022-10-08T09:24:01.800Z,66.60
2022-10-08T09:26:33.634Z,17.65
2022-10-08T09:29:01.905Z,18.13
2022-10-08T09:31:32.617Z,57.85
2022-10-08T09:34:00.146Z,19.92
2022-10-08T09:36:50.619Z,9.90
2022-10-08T09:39:21.074Z,9.57
2022-10-08T09:42:04.514Z,17.10
2022-10-08T09:44:40.955Z,11.80
2022-10-08T09:47:11.489Z,14.90
2022-10-08T09:49:39.026Z,14.10
2022-10-08T09:52:27.022Z,11.70
2022-10-08T09:54:58.820Z,15.25
2022-10-08T09:57:26.279Z,14.85
2022-10-08T10:00:01.516Z,12.60
2022-10-08T10:02:33.402Z,13.25
2022-10-08T10:05:01.900Z,88.78
2022-10-08T10:07:37.831Z,39.38
2022-10-08T10:10:12.040Z,29.92
2022-10-08T10:12:41.272Z,29.90
2022-10-08T10:15:11.783Z,12.40
2022-10-08T10:17:42.524Z,18.98
2022-10-08T10:20:25.043Z,70.72
2022-10-08T10:23:09.113Z,29.70
2022-10-08T10:25:39.645Z,180.50
2022-10-08T10:28:27.412Z,27.50
2022-10-08T10:31:00.403Z,62.25
2022-10-08T10:33:30.042Z,25.42
2022-10-08T10:36:00.795Z,24.63
2022-10-08T10:38:32.477Z,39.50
2022-10-08T10:41:10.770Z,17.35
2022-10-08T10:43:44.344Z,18.52
2022-10-08T10:46:27.142Z,11.40
2022-10-08T10:48:55.504Z,8.95
2022-10-08T10:51:47.380Z,11.60
2022-10-08T10:54:31.368Z,9.40
2022-10-08T10:57:04.028Z,11.75
2022-10-08T10:59:37.899Z,27.55
2022-10-08T11:02:05.366Z,6.80
2022-10-08T11:04:45.016Z,14.68
2022-10-08T11:07:20.851Z,9.10
2022-10-08T11:09:52.968Z,10.80
2022-10-08T11:12:23.590Z,11.68
2022-10-08T11:14:57.082Z,7.72
2022-10-08T11:17:30.601Z,9.70
2022-10-08T11:20:25.550Z,10.70
2022-10-08T11:22:59.095Z,8.23
2022-10-08T11:26:14.930Z,13.55
2022-10-08T11:28:53.769Z,10.05
2022-10-08T11:31:56.805Z,8.52
2022-10-08T11:34:34.859Z,13.05
2022-10-08T11:37:02.367Z,15.00
2022-10-08T11:39:46.637Z,12.85
2022-10-08T11:42:34.672Z,22.37
2022-10-08T11:45:23.840Z,9.98
2022-10-08T11:47:53.595Z,24.48
2022-10-08T11:50:30.123Z,16.92
2022-10-08T11:53:02.629Z,11.55
2022-10-08T11:55:32.536Z,8.93
2022-10-08T11:58:08.873Z,13.65
2022-10-08T12:00:45.647Z,6.00
2022-10-08T12:03:30.477Z,6.32
2022-10-08T12:08:44.327Z,5.88
2022-10-08T12:11:30.265Z,8.88
2022-10-08T12:14:12.940Z,8.57
2022-10-08T12:16:49.603Z,8.68
2022-10-08T12:19:35.806Z,6.35
2022-10-08T12:22:05.130Z,10.20
2022-10-08T12:24:38.665Z,8.13
2022-10-08T12:27:18.518Z,12.88
2022-10-08T12:29:54.952Z,9.25
2022-10-08T12:32:23.813Z,14.93
2022-10-08T12:34:51.249Z,6.55
2022-10-08T12:37:45.251Z,7.15
2022-10-08T12:40:33.102Z,6.22
2022-10-08T12:43:19.395Z,6.38
2022-10-08T12:45:51.530Z,14.90
2022-10-08T12:48:42.296Z,6.03
2022-10-08T12:51:09.939Z,6.70
2022-10-08T12:53:37.416Z,6.20
2022-10-08T12:56:05.412Z,7.95
2022-10-08T12:58:36.907Z,7.57
2022-10-08T13:01:06.291Z,5.18
2022-10-08T13:03:33.742Z,11.48
2022-10-08T13:06:14.833Z,6.80
2022-10-08T13:08:42.829Z,6.35
2022-10-08T13:11:11.687Z,7.25
2022-10-08T13:13:39.068Z,6.05
2022-10-08T13:16:06.630Z,7.65
2022-10-08T13:18:34.955Z,9.50
2022-10-08T13:21:08.027Z,11.95
2022-10-08T13:23:36.439Z,9.48
2022-10-08T13:26:04.244Z,10.43
2022-10-08T13:28:55.773Z,8.35
2022-10-08T13:31:24.857Z,8.13
2022-10-08T13:33:52.468Z,6.95
2022-10-08T13:36:22.044Z,7.95
2022-10-08T13:38:49.456Z,6.57
2022-10-08T13:41:23.923Z,10.68
2022-10-08T13:46:19.079Z,8.95
2022-10-08T13:48:46.625Z,8.25
2022-10-08T13:51:14.130Z,10.07
2022-10-08T13:53:45.550Z,9.02
2022-10-08T13:56:13.649Z,11.57
2022-10-08T13:58:41.115Z,7.13
2022-10-08T14:01:11.618Z,6.65
2022-10-08T14:03:42.601Z,6.30
2022-10-08T14:06:13.039Z,9.27
2022-10-08T14:08:43.642Z,6.40
2022-10-08T14:11:12.854Z,5.00
2022-10-08T14:13:40.418Z,6.75
2022-10-08T14:16:13.624Z,6.50
2022-10-08T14:18:41.128Z,11.15
2022-10-08T14:21:08.630Z,4.93
2022-10-08T14:23:36.518Z,7.53
2022-10-08T14:26:04.008Z,7.60
2022-10-08T14:28:31.559Z,6.28
2022-10-08T14:30:59.052Z,5.53
2022-10-08T14:33:26.640Z,10.07
2022-10-08T14:35:57.590Z,9.02
2022-10-08T14:38:32.887Z,8.98
2022-10-08T14:41:00.653Z,11.77
2022-10-08T14:43:28.068Z,6.40
2022-10-08T14:45:55.717Z,10.85
2022-10-08T14:48:23.144Z,5.75
2022-10-08T14:50:50.589Z,10.45
2022-10-08T14:53:18.133Z,7.72
2022-10-08T14:56:10.674Z,11.30
2022-10-08T14:58:33.599Z,11.23
2022-10-08T15:01:01.040Z,12.18
2022-10-08T15:03:28.990Z,14.95
2022-10-08T15:05:59.125Z,11.80
2022-10-08T15:08:26.595Z,19.65
2022-10-08T15:10:54.024Z,34.45
2022-10-08T15:13:24.537Z,27.98
2022-10-08T15:15:52.068Z,29.52
2022-10-08T15:18:19.473Z,29.60
2022-10-08T15:20:54.590Z,30.00
2022-10-08T15:23:22.889Z,33.00
2022-10-08T15:25:57.423Z,56.10
2022-10-08T15:28:25.978Z,54.45
2022-10-08T15:31:03.790Z,54.42
2022-10-08T15:33:31.425Z,55.53
2022-10-08T15:36:00.001Z,49.47
2022-10-08T15:38:27.467Z,73.13
2022-10-08T15:41:02.157Z,49.75
2022-10-08T15:43:33.124Z,51.60
2022-10-08T15:46:00.906Z,89.93
2022-10-08T15:48:28.359Z,163.45
2022-10-08T15:51:02.078Z,152.45
2022-10-08T15:53:33.553Z,163.48
2022-10-08T15:56:03.924Z,148.80
2022-10-08T15:58:52.234Z,155.10
2022-10-08T16:01:22.626Z,67.50
2022-10-08T16:03:54.267Z,123.30
2022-10-08T16:06:23.221Z,97.03
2022-10-08T16:08:50.671Z,44.70
2022-10-08T16:11:22.563Z,42.42
2022-10-08T16:13:54.488Z,75.50
2022-10-08T16:16:25.836Z,182.55
2022-10-08T16:19:01.299Z,185.90
2022-10-08T16:21:32.643Z,153.63
2022-10-08T16:24:00.816Z,157.40
2022-10-08T16:26:29.062Z,182.73
2022-10-08T16:28:58.089Z,149.75
2022-10-08T16:31:26.628Z,136.23
2022-10-08T16:33:57.898Z,132.45
2022-10-08T16:36:25.768Z,134.10
2022-10-08T16:38:53.492Z,114.22
2022-10-08T16:41:24.729Z,133.40
2022-10-08T16:43:53.154Z,139.15
2022-10-08T16:46:28.149Z,111.03
2022-10-08T16:48:57.079Z,121.05
2022-10-08T16:51:25.467Z,120.18
2022-10-08T16:53:54.573Z,124.53
2022-10-08T16:56:22.713Z,115.28
2022-10-08T16:58:53.719Z,127.57
2022-10-08T17:01:21.649Z,93.95
2022-10-08T17:03:49.537Z,106.03
2022-10-08T17:06:17.643Z,98.20
2022-10-08T17:08:45.246Z,122.47
2022-10-08T17:11:13.870Z,132.07
2022-10-08T17:13:42.150Z,138.38
2022-10-08T17:16:10.111Z,123.97
2022-10-08T17:18:37.978Z,116.72
2022-10-08T17:21:06.242Z,97.60
2022-10-08T17:23:36.878Z,99.70
2022-10-08T17:26:12.089Z,117.10
2022-10-08T17:28:40.890Z,105.80
2022-10-08T17:31:09.383Z,92.35
2022-10-08T17:33:37.213Z,88.97
2022-10-08T17:36:06.153Z,105.15
2022-10-08T17:38:34.301Z,98.43
2022-10-08T17:41:01.846Z,100.32
2022-10-08T17:43:29.324Z,102.88
2022-10-08T17:46:06.121Z,116.22
2022-10-08T17:48:33.608Z,93.55
2022-10-08T17:51:06.044Z,104.60
2022-10-08T17:53:34.024Z,93.82
2022-10-08T17:56:03.087Z,84.70
2022-10-08T17:58:30.864Z,97.93
2022-10-08T18:01:08.781Z,115.05
2022-10-08T18:03:37.205Z,104.75
2022-10-08T18:06:05.408Z,90.13
2022-10-08T18:08:33.196Z,82.47
2022-10-08T18:11:04.548Z,77.10
2022-10-08T18:13:32.100Z,70.70
2022-10-08T18:16:11.313Z,63.20
2022-10-08T18:18:38.932Z,68.40
2022-10-08T18:21:07.687Z,58.50
2022-10-08T18:23:36.582Z,60.40
2022-10-08T18:26:07.799Z,83.57
2022-10-08T18:28:36.106Z,62.42
2022-10-08T18:31:06.618Z,56.30
2022-10-08T18:33:35.007Z,96.53
2022-10-08T18:36:12.653Z,52.63
2022-10-08T18:38:41.212Z,51.17
2022-10-08T18:41:11.797Z,56.83
2022-10-08T18:43:39.348Z,61.88
2022-10-08T18:46:07.415Z,91.57
2022-10-08T18:48:37.633Z,55.35
2022-10-08T18:51:09.335Z,59.17
2022-10-08T18:53:38.161Z,48.50
2022-10-08T18:56:07.615Z,46.60
2022-10-08T18:58:35.165Z,44.03
2022-10-08T19:01:02.660Z,45.97
2022-10-08T19:03:30.104Z,48.45
2022-10-08T19:05:58.672Z,43.72
2022-10-08T19:08:38.941Z,45.72
2022-10-08T19:11:10.731Z,46.40
2022-10-08T19:13:38.243Z,38.65
2022-10-08T19:16:06.447Z,51.85
2022-10-08T19:18:33.971Z,47.63
2022-10-08T19:21:07.423Z,50.70
2022-10-08T19:23:35.101Z,50.25
2022-10-08T19:26:02.544Z,50.95
2022-10-08T19:28:30.046Z,50.40
2022-10-08T19:30:57.685Z,47.00
2022-10-08T19:33:25.332Z,78.38
2022-10-08T19:35:52.794Z,58.03
2022-10-08T19:38:20.270Z,51.55
2022-10-08T19:40:47.895Z,48.05
2022-10-08T19:43:15.414Z,75.10
2022-10-08T19:45:42.873Z,67.88
2022-10-08T19:48:11.327Z,43.15
2022-10-08T19:50:38.839Z,73.32
2022-10-08T19:53:07.264Z,50.65
2022-10-08T19:55:38.115Z,45.75
2022-10-08T19:58:05.870Z,51.03
2022-10-08T20:00:33.256Z,48.28
2022-10-08T20:03:00.814Z,60.22
2022-10-08T20:05:28.267Z,95.95
2022-10-08T20:07:55.632Z,107.78
2022-10-08T20:10:23.135Z,70.72
2022-10-08T20:12:50.880Z,66.38
2022-10-08T20:15:18.562Z,65.28
2022-10-08T20:17:46.030Z,62.63
2022-10-08T20:20:31.570Z,62.90
2022-10-08T20:23:00.251Z,61.50
2022-10-08T20:25:27.814Z,62.42
2022-10-08T20:27:55.208Z,69.05
2022-10-08T20:30:22.719Z,55.28
2022-10-08T20:32:50.596Z,73.70
2022-10-08T20:35:18.504Z,60.40
2022-10-08T20:37:45.975Z,63.75
2022-10-08T20:40:13.444Z,57.20
2022-10-08T20:42:43.812Z,89.13
2022-10-08T20:45:12.084Z,75.28
2022-10-08T20:47:39.496Z,71.00
2022-10-08T20:50:07.034Z,54.92
2022-10-08T20:52:34.538Z,60.58
2022-10-08T20:55:01.968Z,53.67
2022-10-08T20:57:29.402Z,55.65
2022-10-08T20:59:57.018Z,51.90
2022-10-08T21:02:24.741Z,57.50
2022-10-08T21:04:52.153Z,56.10
2022-10-08T21:07:19.643Z,49.63
2022-10-08T21:09:48.782Z,62.97
2022-10-08T21:12:16.280Z,52.75
2022-10-08T21:14:43.815Z,57.20
2022-10-08T21:17:11.189Z,52.90
2022-10-08T21:19:38.690Z,55.03
2022-10-08T21:22:07.843Z,47.33
2022-10-08T21:24:36.694Z,52.35
2022-10-08T21:27:04.123Z,53.10
2022-10-08T21:29:31.803Z,53.83
2022-10-08T21:31:59.225Z,48.35
2022-10-08T21:34:26.660Z,48.80
2022-10-08T21:36:54.046Z,53.22
2022-10-08T21:39:21.444Z,50.72
2022-10-08T21:41:51.877Z,47.83
2022-10-08T21:44:19.578Z,48.50
2022-10-08T21:46:47.084Z,49.63
2022-10-08T21:49:16.367Z,44.90
2022-10-08T21:51:44.378Z,52.65
2022-10-08T21:54:12.008Z,43.30
2022-10-08T21:56:40.235Z,41.78
2022-10-08T21:59:08.359Z,42.40
2022-10-08T22:01:38.820Z,47.33
2022-10-08T22:04:08.054Z,146.55
2022-10-08T22:06:37.378Z,69.63
2022-10-08T22:09:10.514Z,97.10
2022-10-08T22:11:38.196Z,66.80
2022-10-08T22:14:05.975Z,78.30
2022-10-08T22:16:33.740Z,68.10
2022-10-08T22:19:01.191Z,70.85
2022-10-08T22:21:28.729Z,56.63
2022-10-08T22:23:56.170Z,53.83
2022-10-08T22:26:34.032Z,51.92
2022-10-08T22:29:01.947Z,76.00
2022-10-08T22:31:29.631Z,45.83
2022-10-08T22:33:57.150Z,69.68
2022-10-08T22:36:26.369Z,57.28
2022-10-08T22:38:54.605Z,52.47
2022-10-08T22:41:23.698Z,45.08
2022-10-08T22:43:51.126Z,42.25
2022-10-08T22:46:22.987Z,48.22
2022-10-08T22:48:50.807Z,40.78
2022-10-08T22:51:22.102Z,39.72
2022-10-08T22:53:49.888Z,42.75
2022-10-08T22:56:18.732Z,39.40
2022-10-08T22:58:46.343Z,36.65
2022-10-08T23:01:15.014Z,39.78
2022-10-08T23:03:42.685Z,39.92
2022-10-08T23:06:20.534Z,39.92
2022-10-08T23:08:49.267Z,46.83
2022-10-08T23:11:17.057Z,38.78
2022-10-08T23:13:47.555Z,34.08
2022-10-08T23:16:16.374Z,28.88
2022-10-08T23:18:45.187Z,32.20
2022-10-08T23:21:16.078Z,36.40
2022-10-08T23:23:44.426Z,35.67
2022-10-08T23:26:11.829Z,34.30
2022-10-08T23:28:39.640Z,35.22
2022-10-08T23:31:07.243Z,37.10
2022-10-08T23:33:35.445Z,35.83
2022-10-08T23:36:02.852Z,33.78
2022-10-08T23:38:30.207Z,38.85
2022-10-08T23:41:05.429Z,40.65
2022-10-08T23:43:36.880Z,39.42
2022-10-08T23:46:05.224Z,46.40
2022-10-08T23:48:33.056Z,75.07
2022-10-08T23:51:00.832Z,99.65
2022-10-08T23:53:28.344Z,45.83
2022-10-08T23:55:55.870Z,56.13
2022-10-08T23:58:23.382Z,50.50
